createdAt,value
2022-12-11T00:01:34.804Z,0
2022-12-11T00:06:39.004Z,0
2022-12-11T00:11:43.157Z,0
2022-12-11T00:16:47.364Z,0
2022-12-11T00:21:51.459Z,0
2022-12-11T00:26:55.664Z,0
2022-12-11T00:31:59.890Z,0
2022-12-11T00:37:04.038Z,0
2022-12-11T00:42:08.152Z,0
2022-12-11T00:47:12.339Z,0
2022-12-11T00:52:16.507Z,0
2022-12-11T00:57:20.655Z,0
2022-12-11T01:02:24.855Z,0
2022-12-11T01:07:28.977Z,0
2022-12-11T01:12:33.194Z,0
2022-12-11T01:17:37.299Z,0
2022-12-11T01:22:41.495Z,0
2022-12-11T01:27:45.651Z,0
2022-12-11T01:32:49.819Z,0
2022-12-11T01:37:53.984Z,0
2022-12-11T01:42:58.106Z,0
2022-12-11T01:48:02.300Z,0
2022-12-11T01:53:06.475Z,0
2022-12-11T01:58:10.627Z,0
2022-12-11T02:03:14.800Z,0
2022-12-11T02:08:18.977Z,0
2022-12-11T02:13:23.152Z,0
2022-12-11T02:18:27.304Z,0
2022-12-11T02:23:31.487Z,0
2022-12-11T02:28:35.639Z,0
2022-12-11T02:33:39.800Z,0
2022-12-11T02:38:43.947Z,0
2022-12-11T02:43:48.138Z,0
2022-12-11T02:48:52.285Z,0
2022-12-11T02:53:56.468Z,0
2022-12-11T02:59:00.636Z,0
2022-12-11T03:04:04.789Z,0
2022-12-11T03:09:08.958Z,0
2022-12-11T03:14:13.104Z,0
2022-12-11T03:19:17.299Z,0
2022-12-11T03:24:21.434Z,0
2022-12-11T03:29:25.637Z,0
2022-12-11T03:34:29.800Z,0
2022-12-11T03:39:33.968Z,0
2022-12-11T03:44:38.107Z,0
2022-12-11T03:49:42.292Z,0
2022-12-11T03:54:46.452Z,0
2022-12-11T03:59:50.627Z,0
2022-12-11T04:04:54.750Z,0
2022-12-11T04:09:57.052Z,0
2022-12-11T04:15:01.215Z,0
2022-12-11T04:20:05.367Z,0
2022-12-11T04:25:10.022Z,0
2022-12-11T04:30:13.689Z,0
2022-12-11T04:35:17.892Z,0
2022-12-11T04:40:20.170Z,0
2022-12-11T04:45:24.346Z,0
2022-12-11T04:50:28.512Z,0
2022-12-11T04:55:32.672Z,0
2022-12-11T05:00:36.848Z,0
2022-12-11T05:05:40.956Z,0
2022-12-11T05:10:49.964Z,0
2022-12-11T05:15:49.353Z,0
2022-12-11T05:20:53.506Z,0
2022-12-11T05:25:57.654Z,0
2022-12-11T05:31:01.888Z,0
2022-12-11T05:36:05.984Z,0
2022-12-11T05:41:10.137Z,0
2022-12-11T05:46:14.373Z,0
2022-12-11T05:51:18.549Z,0
2022-12-11T05:56:22.644Z,0
2022-12-11T06:01:26.841Z,0
2022-12-11T06:06:30.967Z,0
2022-12-11T06:11:35.151Z,0
2022-12-11T06:16:39.346Z,0
2022-12-11T06:21:43.498Z,0
2022-12-11T06:26:47.625Z,0
2022-12-11T06:31:51.891Z,0
2022-12-11T06:36:56.003Z,0
2022-12-11T06:42:00.174Z,0
2022-12-11T06:47:04.320Z,0
2022-12-11T06:52:09.373Z,0
2022-12-11T06:57:12.651Z,0
2022-12-11T07:02:16.831Z,0
2022-12-11T07:07:20.954Z,1
2022-12-11T07:12:25.247Z,4
2022-12-11T07:17:29.308Z,7
2022-12-11T07:22:33.447Z,15
2022-12-11T07:27:37.641Z,25
2022-12-11T07:32:41.883Z,33
2022-12-11T07:37:45.959Z,40
2022-12-11T07:42:50.138Z,47
2022-12-11T07:47:54.300Z,69
2022-12-11T07:52:58.505Z,75
2022-12-11T07:58:02.657Z,95
2022-12-11T08:03:06.885Z,144
2022-12-11T08:08:10.970Z,190
2022-12-11T08:13:15.213Z,258
2022-12-11T08:18:19.297Z,259
2022-12-11T08:23:23.422Z,254
2022-12-11T08:28:27.623Z,348
2022-12-11T08:33:31.805Z,405
2022-12-11T08:38:35.945Z,385
2022-12-11T08:43:40.123Z,407
2022-12-11T08:48:44.288Z,460
2022-12-11T08:53:48.439Z,566
2022-12-11T08:58:52.623Z,635
2022-12-11T09:03:56.844Z,705
2022-12-11T09:09:00.948Z,759
2022-12-11T09:14:07.566Z,844
2022-12-11T09:19:09.281Z,974
2022-12-11T09:24:13.413Z,935
2022-12-11T09:29:17.586Z,841
2022-12-11T09:34:26.087Z,972
2022-12-11T09:39:25.923Z,1075
2022-12-11T09:44:30.118Z,1043
2022-12-11T09:49:34.253Z,1078
2022-12-11T09:54:38.435Z,1226
2022-12-11T09:59:42.608Z,1250
2022-12-11T10:04:46.772Z,1341
2022-12-11T10:09:49.050Z,1386
2022-12-11T10:14:53.319Z,1435
2022-12-11T10:19:57.373Z,1292
2022-12-11T10:25:23.405Z,1226
2022-12-11T10:30:05.736Z,1300
2022-12-11T10:35:10.233Z,1301
2022-12-11T10:40:14.042Z,1419
2022-12-11T10:45:18.212Z,1647
2022-12-11T10:55:26.564Z,1725
2022-12-11T11:00:30.712Z,1430
2022-12-11T11:05:34.876Z,1748
2022-12-11T11:10:39.011Z,1693
2022-12-11T11:15:43.271Z,1088
2022-12-11T11:20:47.363Z,839
2022-12-11T11:25:51.506Z,640
2022-12-11T11:30:55.766Z,1174
2022-12-11T11:35:59.867Z,1710
2022-12-11T11:41:06.634Z,1935
2022-12-11T11:46:08.237Z,1632
2022-12-11T11:51:12.397Z,1544
2022-12-11T11:56:16.608Z,1157
2022-12-11T12:01:20.670Z,1085
2022-12-11T12:06:24.816Z,1463
2022-12-11T12:11:29.028Z,1505
2022-12-11T12:16:52.091Z,1539
2022-12-11T12:21:37.316Z,1410
2022-12-11T12:26:41.511Z,1197
2022-12-11T12:31:45.700Z,1360
2022-12-11T12:36:49.827Z,1486
2022-12-11T12:41:54.031Z,1230
2022-12-11T12:46:58.151Z,1167
2022-12-11T12:52:02.313Z,1069
2022-12-11T12:57:06.509Z,1028
2022-12-11T13:02:10.734Z,1181
2022-12-11T13:07:14.850Z,1202
2022-12-11T13:12:19.006Z,1170
2022-12-11T13:17:23.192Z,1186
2022-12-11T13:22:27.317Z,1199
2022-12-11T13:27:31.493Z,1197
2022-12-11T13:32:35.645Z,1190
2022-12-11T13:37:39.818Z,1294
2022-12-11T13:42:43.991Z,1428
2022-12-11T13:47:48.147Z,1373
2022-12-11T13:52:52.401Z,1199
2022-12-11T13:57:56.463Z,1430
2022-12-11T14:03:00.669Z,1645
2022-12-11T14:08:04.812Z,1358
2022-12-11T14:13:09.013Z,1035
2022-12-11T14:18:13.126Z,910
2022-12-11T14:23:17.290Z,825
2022-12-11T14:28:21.470Z,972
2022-12-11T14:33:25.701Z,811
2022-12-11T14:38:29.829Z,576
2022-12-11T14:43:33.971Z,463
2022-12-11T14:48:38.161Z,316
2022-12-11T14:53:42.270Z,254
2022-12-11T14:58:46.498Z,165
2022-12-11T15:03:50.651Z,172
2022-12-11T15:08:54.827Z,180
2022-12-11T15:13:58.962Z,143
2022-12-11T15:19:03.159Z,84
2022-12-11T15:24:07.321Z,37
2022-12-11T15:29:11.611Z,31
2022-12-11T15:34:15.615Z,27
2022-12-11T15:39:17.937Z,15
2022-12-11T15:44:22.060Z,8
2022-12-11T15:49:26.203Z,4
2022-12-11T15:54:30.397Z,1
2022-12-11T15:59:34.543Z,0
2022-12-11T16:04:38.745Z,0
2022-12-11T16:09:42.887Z,0
2022-12-11T16:14:47.075Z,0
2022-12-11T16:19:51.225Z,0
2022-12-11T16:24:55.397Z,0
2022-12-11T16:29:59.627Z,0
2022-12-11T16:35:03.718Z,0
2022-12-11T16:40:07.895Z,0
2022-12-11T16:45:12.236Z,0
2022-12-11T16:50:16.180Z,0
2022-12-11T16:55:20.383Z,0
2022-12-11T17:00:24.529Z,0
2022-12-11T17:05:28.708Z,0
2022-12-11T17:10:32.891Z,0
2022-12-11T17:15:37.092Z,0
2022-12-11T17:20:41.191Z,0
2022-12-11T17:25:45.371Z,0
2022-12-11T17:30:49.635Z,0
2022-12-11T17:35:53.726Z,0
2022-12-11T17:40:57.869Z,0
2022-12-11T17:46:02.105Z,0
2022-12-11T17:51:06.203Z,0
2022-12-11T17:56:10.403Z,0
2022-12-11T18:01:14.737Z,0
2022-12-11T18:06:18.717Z,0
2022-12-11T18:11:22.851Z,0
2022-12-11T18:16:27.151Z,0
2022-12-11T18:21:31.219Z,0
2022-12-11T18:26:35.349Z,0
2022-12-11T18:31:42.551Z,0
2022-12-11T18:36:43.684Z,0
2022-12-11T18:42:03.378Z,0
2022-12-11T18:46:52.085Z,0
2022-12-11T18:51:56.198Z,0
2022-12-11T18:57:00.420Z,0
2022-12-11T19:02:04.588Z,0
2022-12-11T19:07:08.704Z,0
2022-12-11T19:12:12.866Z,0
2022-12-11T19:17:17.044Z,0
2022-12-11T19:22:21.242Z,0
2022-12-11T19:27:25.390Z,0
2022-12-11T19:32:34.718Z,0
2022-12-11T19:37:33.706Z,0
2022-12-11T19:42:37.872Z,0
2022-12-11T19:47:41.994Z,0
2022-12-11T19:52:46.720Z,0
2022-12-11T19:57:50.369Z,0
2022-12-11T20:02:54.506Z,0
2022-12-11T20:08:14.351Z,0
2022-12-11T20:13:02.818Z,0
2022-12-11T20:18:07.168Z,0
2022-12-11T20:23:11.233Z,0
2022-12-11T20:28:15.358Z,0
2022-12-11T20:33:19.525Z,0
2022-12-11T20:38:23.664Z,0
2022-12-11T20:43:27.866Z,0
2022-12-11T20:48:32.081Z,0
2022-12-11T20:53:36.174Z,0
2022-12-11T20:58:40.439Z,0
2022-12-11T21:03:44.506Z,0
2022-12-11T21:08:46.780Z,0
2022-12-11T21:13:50.954Z,0
2022-12-11T21:18:55.125Z,0
2022-12-11T21:23:59.272Z,0
2022-12-11T21:29:03.488Z,0
2022-12-11T21:34:07.632Z,0
2022-12-11T21:39:09.879Z,0
2022-12-11T21:45:26.027Z,0
2022-12-11T21:49:18.228Z,0
2022-12-11T21:54:22.392Z,0
2022-12-11T21:59:26.525Z,0
2022-12-11T22:04:30.720Z,0
2022-12-11T22:09:34.876Z,0
2022-12-11T22:14:39.050Z,0
2022-12-11T22:19:43.168Z,0
2022-12-11T22:24:47.383Z,0
2022-12-11T22:29:51.616Z,0
2022-12-11T22:34:55.709Z,0
2022-12-11T22:39:59.910Z,0
2022-12-11T22:45:04.013Z,0
2022-12-11T22:50:08.175Z,0
2022-12-11T22:55:12.599Z,0
2022-12-11T23:00:16.524Z,0
2022-12-11T23:05:20.729Z,0
2022-12-11T23:10:24.864Z,0
2022-12-11T23:15:29.048Z,0
2022-12-11T23:20:33.198Z,0
2022-12-11T23:25:37.361Z,0
2022-12-11T23:30:41.524Z,0
2022-12-11T23:35:45.704Z,0
2022-12-11T23:40:49.870Z,0
2022-12-11T23:45:54.091Z,0
2022-12-11T23:50:58.164Z,0
2022-12-11T23:56:02.356Z,0
